Time;durP1;ratioP1;P1;durP2;ratioP2;P2;SDS_P1;SDS_P2;PMS_P1;PMS_P2;Temp;Humidity;BMP_temperature;BMP_pressure;BME280_temperature;BME280_humidity;BME280_pressure;Samples;Min_cycle;Max_cycle;Signal;HPM_P1;HPM_P2
2022/07/05 00:02:33;;;;;;;5.20;2.13;;;16.20;1.00;;;;;;5056615;28;20122;-84
2022/07/05 00:05:20;;;;;;;3.28;2.17;;;16.20;1.00;;;;;;5055495;28;20048;-84
2022/07/05 00:08:08;;;;;;;3.33;2.13;;;16.10;99.90;;;;;;5054173;28;20076;-84
2022/07/05 00:10:55;;;;;;;2.28;2.00;;;16.00;99.90;;;;;;5050218;28;20122;-83
2022/07/05 00:13:42;;;;;;;4.88;2.33;;;16.00;99.90;;;;;;5055224;28;20500;-84
2022/07/05 00:16:32;;;;;;;10.60;1.98;;;16.00;99.90;;;;;;5056315;28;20059;-84
2022/07/05 00:19:22;;;;;;;4.32;1.98;;;15.90;1.00;;;;;;5061846;28;20112;-83
2022/07/05 00:22:09;;;;;;;3.28;2.47;;;15.90;99.90;;;;;;5047097;28;20079;-84
2022/07/05 00:24:56;;;;;;;5.30;2.45;;;15.80;99.90;;;;;;5063956;28;20032;-84
2022/07/05 00:27:46;;;;;;;2.95;2.63;;;15.80;1.00;;;;;;5068182;28;20113;-84
2022/07/05 00:30:33;;;;;;;4.18;2.50;;;15.80;6.70;;;;;;5058776;28;20053;-84
2022/07/05 00:33:23;;;;;;;3.03;2.30;;;15.80;1.00;;;;;;5056864;28;20045;-83
2022/07/05 00:36:10;;;;;;;5.53;3.08;;;15.70;99.90;;;;;;5046021;28;20045;-84
2022/07/05 00:38:57;;;;;;;6.43;2.80;;;15.60;99.90;;;;;;5065088;28;20045;-84
2022/07/05 00:41:45;;;;;;;6.93;2.97;;;15.50;56.70;;;;;;5053382;28;20041;-85
2022/07/05 00:44:37;;;;;;;2.85;2.30;;;15.40;99.90;;;;;;5052428;28;20072;-83
2022/07/05 00:47:24;;;;;;;4.10;2.40;;;15.30;1.00;;;;;;5049721;28;20041;-84
2022/07/05 00:50:11;;;;;;;2.40;2.17;;;15.20;1.00;;;;;;5053837;28;20082;-84
2022/07/05 00:53:01;;;;;;;2.50;2.03;;;15.20;1.00;;;;;;5056404;28;20049;-83
2022/07/05 00:55:48;;;;;;;3.72;2.58;;;15.20;99.90;;;;;;5051103;28;20049;-84
2022/07/05 00:58:40;;;;;;;3.47;2.55;;;15.20;1.00;;;;;;5055097;28;20049;-84
2022/07/05 01:01:28;;;;;;;5.70;2.80;;;15.10;99.90;;;;;;5036575;28;20049;-83
2022/07/05 01:04:18;;;;;;;4.47;2.50;;;15.10;99.90;;;;;;5060074;28;20125;-84
2022/07/05 01:07:05;;;;;;;7.95;3.30;;;15.10;1.00;;;;;;5049406;28;20072;-83
2022/07/05 01:09:53;;;;;;;5.15;2.90;;;15.00;38.50;;;;;;5049916;28;20049;-84
2022/07/05 01:12:47;;;;;;;4.28;3.50;;;14.90;1.00;;;;;;5040702;28;20049;-84
2022/07/05 01:15:35;;;;;;;5.57;2.97;;;14.80;1.00;;;;;;5050145;28;20090;-84
2022/07/05 01:18:22;;;;;;;4.93;3.05;;;14.70;99.90;;;;;;5057763;28;20068;-83
2022/07/05 01:21:13;;;;;;;2.55;2.40;;;14.60;99.90;;;;;;5056205;28;20055;-83
2022/07/05 01:24:00;;;;;;;6.50;3.38;;;14.50;99.90;;;;;;5041763;28;20340;-83
2022/07/05 01:26:49;;;;;;;4.38;3.00;;;14.50;99.90;;;;;;5041723;28;20055;-84
2022/07/05 01:29:36;;;;;;;4.57;2.92;;;14.50;99.90;;;;;;5037061;28;20274;-83
2022/07/05 01:32:24;;;;;;;3.35;2.60;;;14.60;99.90;;;;;;5054611;28;20049;-83
2022/07/05 01:35:12;;;;;;;3.30;2.50;;;14.60;99.90;;;;;;5052849;28;20429;-82
2022/07/05 01:38:00;;;;;;;4.18;2.50;;;14.50;99.90;;;;;;5050814;28;20052;-83
2022/07/05 01:40:51;;;;;;;8.35;2.90;;;14.60;99.90;;;;;;5043788;28;20041;-83
2022/07/05 01:43:39;;;;;;;4.85;3.15;;;14.60;99.90;;;;;;5043922;28;20466;-83
2022/07/05 01:46:33;;;;;;;4.15;3.15;;;14.50;99.90;;;;;;5051216;28;20044;-83
2022/07/05 01:49:28;;;;;;;5.05;3.08;;;14.50;99.90;;;;;;5052465;28;20081;-83
2022/07/05 01:52:19;;;;;;;4.43;3.50;;;14.30;99.90;;;;;;5052232;28;20088;-84
2022/07/05 01:55:07;;;;;;;5.25;3.47;;;14.20;99.90;;;;;;5053718;28;20056;-83
2022/07/05 01:57:56;;;;;;;4.72;3.08;;;14.10;1.00;;;;;;5047362;28;20367;-84
2022/07/05 02:00:50;;;;;;;5.13;3.10;;;14.10;1.00;;;;;;5061742;28;21920;-83
2022/07/05 02:03:39;;;;;;;5.20;3.33;;;14.10;99.90;;;;;;5052411;28;20128;-82
2022/07/05 02:06:45;;;;;;;4.80;2.90;;;14.10;99.90;;;;;;5053095;28;20357;-83
2022/07/05 02:09:35;;;;;;;7.18;2.90;;;14.10;99.90;;;;;;5044168;28;20198;-83
2022/07/05 02:12:22;;;;;;;4.63;3.47;;;14.20;99.90;;;;;;5054590;28;20076;-83
2022/07/05 02:15:09;;;;;;;4.10;3.03;;;14.20;99.90;;;;;;5046950;28;20064;-83
2022/07/05 02:17:59;;;;;;;5.97;3.38;;;14.20;99.90;;;;;;5054160;28;20099;-82
2022/07/05 02:20:46;;;;;;;4.28;3.03;;;14.10;99.90;;;;;;5035908;28;20041;-83
2022/07/05 02:23:36;;;;;;;6.65;3.17;;;14.00;99.90;;;;;;5057765;28;20044;-82
2022/07/05 02:26:23;;;;;;;5.47;2.78;;;14.00;99.90;;;;;;5059145;28;20048;-83
2022/07/05 02:29:10;;;;;;;5.68;3.35;;;14.00;99.90;;;;;;5052924;28;20210;-83
2022/07/05 02:31:57;;;;;;;4.10;2.92;;;13.90;99.90;;;;;;5053714;28;20060;-83
2022/07/05 02:34:47;;;;;;;4.40;2.65;;;13.90;99.90;;;;;;5051371;28;20071;-82
2022/07/05 02:37:35;;;;;;;5.75;2.50;;;13.90;99.90;;;;;;5058020;28;20649;-82
2022/07/05 02:40:22;;;;;;;5.28;3.45;;;13.90;99.90;;;;;;5046505;28;20217;-82
2022/07/05 02:43:09;;;;;;;4.90;3.20;;;13.90;99.90;;;;;;5047284;28;20405;-82
2022/07/05 02:45:59;;;;;;;6.07;3.00;;;13.80;1.00;;;;;;5048682;28;20045;-82
2022/07/05 02:48:46;;;;;;;5.55;3.30;;;13.80;1.00;;;;;;5060677;28;20333;-82
2022/07/05 02:51:33;;;;;;;6.28;3.38;;;13.70;99.90;;;;;;5038447;28;20520;-82
2022/07/05 02:54:23;;;;;;;4.97;3.55;;;13.70;99.90;;;;;;5056451;28;20047;-83
2022/07/05 02:57:12;;;;;;;4.32;3.33;;;13.60;99.90;;;;;;5062480;28;20045;-83
2022/07/05 02:59:59;;;;;;;5.40;3.17;;;13.60;1.00;;;;;;5055320;28;20119;-83
2022/07/05 03:02:49;;;;;;;4.13;2.90;;;13.60;99.90;;;;;;5054262;28;20080;-82
2022/07/05 03:05:38;;;;;;;4.75;3.00;;;13.60;99.90;;;;;;5058762;28;20045;-83
2022/07/05 03:08:25;;;;;;;5.78;3.40;;;13.50;1.00;;;;;;5059851;28;20442;-83
2022/07/05 03:11:13;;;;;;;3.40;3.10;;;13.50;99.90;;;;;;5051390;28;20131;-83
2022/07/05 03:14:00;;;;;;;5.95;2.80;;;13.50;99.90;;;;;;5045351;28;20056;-83
2022/07/05 03:16:49;;;;;;;3.88;2.97;;;13.50;99.90;;;;;;5055194;28;20041;-82
2022/07/05 03:19:37;;;;;;;5.43;4.07;;;13.50;1.00;;;;;;5052947;28;20045;-82
2022/07/05 03:22:24;;;;;;;4.57;3.30;;;13.40;1.00;;;;;;5057768;28;20056;-83
2022/07/05 03:25:11;;;;;;;5.68;3.58;;;13.20;1.00;;;;;;5058289;28;20053;-83
2022/07/05 03:27:58;;;;;;;5.43;2.90;;;13.10;1.00;;;;;;5049357;28;20057;-83
2022/07/05 03:30:46;;;;;;;4.25;3.55;;;13.10;1.00;;;;;;5056986;28;20130;-83
2022/07/05 03:33:33;;;;;;;4.63;4.00;;;13.10;1.00;;;;;;5058243;28;20107;-81
2022/07/05 03:36:20;;;;;;;5.32;3.70;;;13.10;1.00;;;;;;5047719;28;20045;-82
2022/07/05 03:39:07;;;;;;;4.40;3.80;;;13.10;1.00;;;;;;5058427;28;20118;-84
2022/07/05 03:41:55;;;;;;;6.15;4.45;;;13.10;1.00;;;;;;5054557;28;20049;-83
2022/07/05 03:44:42;;;;;;;4.43;3.45;;;13.10;1.00;;;;;;5047752;28;20049;-84
2022/07/05 03:47:29;;;;;;;3.53;3.22;;;13.10;1.00;;;;;;5059339;28;20138;-83
2022/07/05 03:50:16;;;;;;;5.95;3.50;;;13.10;1.00;;;;;;5065840;28;20041;-84
2022/07/05 03:53:03;;;;;;;12.13;3.72;;;13.20;1.00;;;;;;5062140;28;20048;-84
2022/07/05 03:55:53;;;;;;;6.85;3.80;;;13.20;1.00;;;;;;5055940;28;20053;-83
2022/07/05 03:58:42;;;;;;;7.88;4.32;;;13.30;99.90;;;;;;5037374;28;20069;-84
2022/07/05 04:02:16;;;;;;;4.93;3.50;;;13.30;99.90;;;;;;5051217;28;20048;-84
2022/07/05 04:05:04;;;;;;;4.72;4.05;;;13.20;1.00;;;;;;5052866;28;20114;-83
2022/07/05 04:07:54;;;;;;;4.18;3.78;;;13.30;1.00;;;;;;5037630;28;20473;-83
2022/07/05 04:10:41;;;;;;;6.25;3.17;;;13.20;1.00;;;;;;5051002;28;20049;-83
2022/07/05 04:13:28;;;;;;;7.20;3.20;;;13.30;99.90;;;;;;5051894;28;20053;-84
2022/07/05 04:16:15;;;;;;;4.65;3.33;;;13.30;99.90;;;;;;5044237;28;20079;-84
2022/07/05 04:19:03;;;;;;;6.80;3.08;;;13.40;99.90;;;;;;5048961;28;20132;-83
2022/07/05 04:34:32;;;;;;;6.65;2.90;;;13.80;1.00;;;;;;5054859;28;20025;-84
2022/07/05 04:54:11;;;;;;;3.78;2.60;;;14.20;99.90;;;;;;4975655;28;20110;-82
2022/07/05 04:56:58;;;;;;;7.97;2.65;;;14.30;1.00;;;;;;4972879;28;20503;-83
2022/07/05 04:59:45;;;;;;;4.03;2.00;;;14.40;99.90;;;;;;4969486;28;20055;-84
2022/07/05 05:02:36;;;;;;;3.30;1.95;;;14.40;99.90;;;;;;5041662;28;20446;-85
2022/07/05 05:05:23;;;;;;;4.22;2.05;;;14.50;99.90;;;;;;5047847;28;20458;-83
2022/07/05 05:08:13;;;;;;;6.50;2.55;;;14.60;99.90;;;;;;5054403;28;20041;-83
2022/07/05 05:11:00;;;;;;;3.60;2.47;;;14.70;1.00;;;;;;5057149;28;20052;-83
2022/07/05 05:13:47;;;;;;;4.32;2.22;;;14.80;1.00;;;;;;5050647;28;20056;-83
2022/07/05 05:16:37;;;;;;;3.35;2.22;;;14.80;99.90;;;;;;5051775;28;20091;-84
2022/07/05 05:19:24;;;;;;;6.18;2.15;;;14.90;99.90;;;;;;5045209;28;20666;-84
2022/07/05 05:22:12;;;;;;;4.57;1.98;;;14.90;99.90;;;;;;5057869;28;20071;-84
2022/07/05 05:24:59;;;;;;;7.40;2.13;;;15.10;88.50;;;;;;5049019;28;20140;-83
2022/07/05 05:27:50;;;;;;;5.47;1.85;;;15.20;1.00;;;;;;5054211;28;20070;-85
2022/07/05 05:30:37;;;;;;;3.35;2.20;;;15.30;1.00;;;;;;5041762;28;20052;-83
2022/07/05 05:33:24;;;;;;;5.95;2.40;;;15.40;99.90;;;;;;5052115;28;20353;-84
2022/07/05 05:36:14;;;;;;;4.38;2.00;;;15.60;99.90;;;;;;5055778;28;20501;-85
2022/07/05 05:39:06;;;;;;;3.80;2.28;;;15.70;99.90;;;;;;5046574;28;20045;-84
2022/07/05 05:41:55;;;;;;;4.32;2.10;;;15.70;99.90;;;;;;5033637;28;20053;-84
2022/07/05 05:44:43;;;;;;;2.22;1.80;;;15.80;1.00;;;;;;5053977;28;20091;-84
2022/07/05 05:47:30;;;;;;;3.63;1.70;;;15.90;99.90;;;;;;5054475;28;20072;-82
2022/07/05 05:50:38;;;;;;;4.95;1.70;;;15.90;99.90;;;;;;5036798;28;20045;-85
2022/07/05 05:53:27;;;;;;;2.20;1.75;;;16.10;99.90;;;;;;5039138;28;20082;-84
2022/07/05 05:56:16;;;;;;;6.93;1.70;;;16.20;99.90;;;;;;5048821;28;20114;-85
2022/07/05 05:59:03;;;;;;;7.53;1.75;;;16.30;27.20;;;;;;5037878;28;20138;-84
2022/07/05 06:01:50;;;;;;;2.83;1.65;;;16.40;99.90;;;;;;5051217;28;20045;-85
2022/07/05 06:04:41;;;;;;;3.97;1.65;;;16.50;99.90;;;;;;5052034;28;20045;-85
2022/07/05 06:07:50;;;;;;;3.78;1.63;;;16.70;99.90;;;;;;5052633;28;20048;-86
2022/07/05 06:10:40;;;;;;;3.25;1.20;;;16.80;1.00;;;;;;5054004;28;20049;-86
2022/07/05 06:13:28;;;;;;;3.75;1.63;;;17.00;99.90;;;;;;5054606;28;20049;-85
2022/07/05 06:16:20;;;;;;;2.88;1.58;;;17.20;1.00;;;;;;5049354;28;20037;-84
2022/07/05 06:19:07;;;;;;;3.93;1.47;;;17.30;1.00;;;;;;5057459;28;20472;-85
2022/07/05 06:21:56;;;;;;;4.97;1.70;;;17.50;99.90;;;;;;5036293;28;20365;-84
2022/07/05 06:24:46;;;;;;;9.25;1.75;;;17.60;99.90;;;;;;5049649;28;20059;-84
2022/07/05 06:28:03;;;;;;;2.65;1.23;;;17.70;99.90;;;;;;5054388;28;20041;-84
2022/07/05 06:30:50;;;;;;;2.78;0.80;;;17.90;99.90;;;;;;5053114;28;20528;-86
2022/07/05 06:33:39;;;;;;;7.28;1.63;;;18.10;99.90;;;;;;5049411;28;20041;-84
2022/07/05 06:36:26;;;;;;;4.40;1.08;;;18.30;1.00;;;;;;5050770;28;20162;-85
2022/07/05 06:39:14;;;;;;;5.55;1.48;;;18.40;1.00;;;;;;5048576;28;20041;-86
2022/07/05 06:42:10;;;;;;;5.60;1.67;;;18.50;1.00;;;;;;5048382;28;20041;-86
2022/07/05 06:44:57;;;;;;;3.70;0.93;;;18.70;1.00;;;;;;5050021;28;20041;-84
2022/07/05 06:47:45;;;;;;;4.63;1.40;;;18.90;1.00;;;;;;5048201;28;20115;-86
2022/07/05 06:50:35;;;;;;;3.92;1.05;;;19.10;99.90;;;;;;5051476;28;20049;-82
2022/07/05 06:53:25;;;;;;;4.13;1.48;;;19.50;99.90;;;;;;5040113;28;20060;-86
2022/07/05 06:56:12;;;;;;;7.32;1.60;;;19.70;99.90;;;;;;5049651;28;20439;-86
2022/07/05 06:58:59;;;;;;;2.75;1.23;;;19.90;99.90;;;;;;5039631;28;21311;-81
2022/07/05 07:01:57;;;;;;;2.28;1.10;;;20.40;85.10;;;;;;5038221;28;20037;-86
2022/07/05 07:05:05;;;;;;;9.52;1.00;;;20.60;1.00;;;;;;5059187;28;20390;-85
2022/07/05 07:11:08;;;;;;;4.18;1.20;;;21.30;99.90;;;;;;5051535;28;20045;-90
2022/07/05 07:13:56;;;;;;;3.58;0.90;;;21.90;99.90;;;;;;5052415;28;20045;-84
2022/07/05 07:16:44;;;;;;;3.05;1.17;;;22.40;99.90;;;;;;5052956;28;20457;-87
2022/07/05 07:19:31;;;;;;;4.45;1.08;;;22.50;99.90;;;;;;5040766;28;20469;-85
2022/07/05 07:22:18;;;;;;;4.65;1.27;;;22.50;99.90;;;;;;5055413;28;20129;-85
2022/07/05 07:25:08;;;;;;;5.03;1.10;;;22.80;99.90;;;;;;5041525;28;20053;-86
2022/07/05 07:27:58;;;;;;;2.95;1.50;;;22.80;99.90;;;;;;5042557;28;20044;-86
2022/07/05 07:30:48;;;;;;;1.92;0.90;;;23.20;99.90;;;;;;5050679;28;20045;-86
2022/07/05 07:33:35;;;;;;;2.95;1.10;;;23.90;99.90;;;;;;5054509;28;20052;-84
2022/07/05 07:36:31;;;;;;;6.25;1.10;;;25.10;99.90;;;;;;5064325;28;20049;-86
2022/07/05 07:39:20;;;;;;;1.10;0.70;;;25.90;99.90;;;;;;5061588;28;20044;-87
2022/07/05 07:42:09;;;;;;;2.20;0.80;;;26.10;99.90;;;;;;5066057;28;20189;-87
2022/07/05 07:45:03;;;;;;;6.80;1.25;;;26.50;99.90;;;;;;5070639;28;20037;-87
2022/07/05 07:47:52;;;;;;;1.98;0.90;;;26.90;99.90;;;;;;5057634;28;20029;-88
2022/07/05 07:50:40;;;;;;;3.22;0.95;;;25.80;99.90;;;;;;5051072;28;20041;-84
2022/07/05 07:53:28;;;;;;;3.40;0.90;;;25.20;99.90;;;;;;5058264;28;20200;-84
2022/07/05 07:56:15;;;;;;;1.42;0.82;;;25.50;99.90;;;;;;5058841;28;20151;-86
2022/07/05 07:59:02;;;;;;;4.05;0.80;;;26.20;99.90;;;;;;5038211;28;20053;-84
2022/07/05 08:01:50;;;;;;;4.28;1.00;;;26.70;99.90;;;;;;5057419;28;20048;-83
2022/07/05 08:04:37;;;;;;;4.55;1.00;;;27.00;99.90;;;;;;5047483;28;20065;-84
2022/07/05 08:07:25;;;;;;;2.17;0.85;;;26.80;99.90;;;;;;5049723;28;20055;-83
2022/07/05 08:10:14;;;;;;;4.10;0.90;;;27.00;99.90;;;;;;5054399;28;20053;-83
2022/07/05 08:13:02;;;;;;;1.98;0.90;;;27.60;99.90;;;;;;5052826;28;20192;-85
2022/07/05 08:15:49;;;;;;;4.15;1.10;;;27.70;99.90;;;;;;5050899;28;20060;-83
2022/07/05 08:21:42;;;;;;;2.70;0.73;;;27.80;99.90;;;;;;5051976;28;20198;-84
2022/07/05 08:24:30;;;;;;;1.95;0.50;;;27.70;99.90;;;;;;5048385;28;20075;-83
2022/07/05 08:27:17;;;;;;;6.32;0.70;;;27.70;99.90;;;;;;5042209;28;20059;-82
2022/07/05 08:30:05;;;;;;;5.43;1.02;;;28.10;99.90;;;;;;5052671;28;20442;-83
2022/07/05 08:32:52;;;;;;;2.92;0.90;;;27.90;99.90;;;;;;5052842;28;20047;-82
2022/07/05 08:35:40;;;;;;;2.80;0.90;;;27.60;99.90;;;;;;5054050;28;20041;-85
2022/07/05 08:38:27;;;;;;;4.57;0.93;;;28.30;99.90;;;;;;5049698;28;20057;-85
2022/07/05 08:41:19;;;;;;;3.15;0.60;;;28.80;99.90;;;;;;5052569;28;20057;-85
2022/07/05 08:44:07;;;;;;;7.75;0.70;;;29.40;99.90;;;;;;5051322;28;20662;-85
2022/07/05 08:46:57;;;;;;;2.30;0.82;;;29.90;99.90;;;;;;5049453;28;20041;-85
2022/07/05 08:49:49;;;;;;;2.75;0.85;;;29.70;99.90;;;;;;5053261;28;20131;-85
2022/07/05 08:52:37;;;;;;;3.03;0.60;;;30.50;99.90;;;;;;5053314;28;20045;-85
2022/07/05 08:55:26;;;;;;;4.20;0.82;;;30.40;99.90;;;;;;5060814;28;20040;-86
2022/07/05 08:58:13;;;;;;;1.77;0.40;;;30.40;99.90;;;;;;5052069;28;20049;-85
2022/07/05 09:01:01;;;;;;;1.30;0.57;;;31.10;99.90;;;;;;5056352;28;20052;-86
2022/07/05 09:03:51;;;;;;;3.45;0.43;;;30.70;99.90;;;;;;5036972;28;20468;-88
2022/07/05 09:06:39;;;;;;;1.85;0.50;;;30.90;99.90;;;;;;5041530;28;20531;-90
2022/07/05 09:09:27;;;;;;;1.77;0.60;;;31.00;99.90;;;;;;5037895;28;20037;-90
2022/07/05 09:12:17;;;;;;;3.45;0.77;;;31.30;99.90;;;;;;5044895;28;20476;-91
2022/07/05 09:15:10;;;;;;;4.55;0.80;;;31.30;99.90;;;;;;5053465;28;20362;-91
2022/07/05 09:17:57;;;;;;;5.40;0.60;;;31.40;99.90;;;;;;5050072;28;20073;-87
2022/07/05 09:20:46;;;;;;;2.15;0.40;;;31.60;99.90;;;;;;5052944;28;20178;-88
2022/07/05 09:23:40;;;;;;;1.17;0.65;;;31.60;99.90;;;;;;5051485;28;20052;-87
2022/07/05 09:26:47;;;;;;;4.05;0.60;;;31.40;99.90;;;;;;5049775;28;20037;-88
2022/07/05 09:29:34;;;;;;;2.25;0.60;;;31.50;99.90;;;;;;5053854;28;20049;-88
2022/07/05 09:32:41;;;;;;;1.52;0.43;;;31.50;99.90;;;;;;5054775;28;20063;-90
2022/07/05 09:35:33;;;;;;;1.77;0.98;;;31.30;99.60;;;;;;5053217;28;20045;-86
2022/07/05 09:38:24;;;;;;;2.13;0.60;;;31.80;99.90;;;;;;5039596;28;20056;-87
2022/07/05 09:41:12;;;;;;;0.90;0.40;;;32.20;99.90;;;;;;5045299;28;20119;-88
2022/07/05 09:44:00;;;;;;;1.17;0.47;;;32.60;99.90;;;;;;5050540;28;20370;-86
2022/07/05 09:47:06;;;;;;;4.57;0.63;;;33.40;99.90;;;;;;5045980;28;20102;-87
2022/07/05 09:49:55;;;;;;;1.10;0.60;;;33.40;99.90;;;;;;5051739;28;20048;-86
2022/07/05 09:52:56;;;;;;;4.15;0.70;;;32.40;99.90;;;;;;5052396;28;20119;-87
2022/07/05 09:56:03;;;;;;;2.42;0.65;;;32.60;99.90;;;;;;5051643;28;20053;-87
2022/07/05 09:58:50;;;;;;;2.10;0.50;;;32.40;99.90;;;;;;5051903;28;20142;-88
2022/07/05 10:01:39;;;;;;;5.43;0.60;;;32.80;99.90;;;;;;5052202;28;20162;-85
2022/07/05 10:04:29;;;;;;;1.92;0.50;;;33.10;99.90;;;;;;5050997;28;20040;-86
2022/07/05 10:07:31;;;;;;;3.22;0.50;;;33.40;99.90;;;;;;5051723;28;20083;-89
2022/07/05 10:10:23;;;;;;;3.92;0.70;;;33.30;99.90;;;;;;5053831;28;20056;-87
2022/07/05 10:13:13;;;;;;;3.72;0.63;;;32.50;99.90;;;;;;5049392;28;20045;-88
2022/07/05 10:16:01;;;;;;;1.80;0.45;;;32.20;99.90;;;;;;5034764;28;20331;-86
2022/07/05 10:18:55;;;;;;;5.18;0.60;;;32.40;99.90;;;;;;5050951;28;20044;-86
2022/07/05 10:21:44;;;;;;;6.53;0.77;;;32.40;99.90;;;;;;5052473;28;20040;-87
2022/07/05 10:24:53;;;;;;;4.32;0.70;;;32.80;99.90;;;;;;5052424;28;20156;-87
2022/07/05 10:27:41;;;;;;;1.38;0.40;;;33.00;99.90;;;;;;5038188;28;20107;-88
2022/07/05 10:30:29;;;;;;;1.65;0.43;;;33.10;99.90;;;;;;5049280;28;20057;-89
2022/07/05 10:33:27;;;;;;;2.45;0.40;;;33.50;99.90;;;;;;5054542;28;20096;-87
2022/07/05 10:36:16;;;;;;;2.17;0.63;;;32.90;99.90;;;;;;5054616;28;20053;-89
2022/07/05 10:39:04;;;;;;;1.38;0.63;;;32.80;99.90;;;;;;5053364;28;20053;-87
2022/07/05 10:41:53;;;;;;;2.47;0.60;;;33.00;99.90;;;;;;5047841;28;20057;-91
2022/07/05 10:44:41;;;;;;;2.38;0.60;;;33.50;99.90;;;;;;5058999;28;20120;-88
2022/07/05 10:47:29;;;;;;;1.17;0.55;;;34.20;99.90;;;;;;5054258;28;20052;-88
2022/07/05 10:50:17;;;;;;;1.95;0.80;;;33.80;1.00;;;;;;5051404;28;20150;-87
2022/07/05 10:53:04;;;;;;;3.60;0.52;;;32.00;1.00;;;;;;5059415;28;20049;-85
2022/07/05 10:55:55;;;;;;;4.03;0.50;;;30.80;1.00;;;;;;5055374;28;20060;-86
2022/07/05 10:58:47;;;;;;;2.47;0.70;;;31.70;1.00;;;;;;5040488;28;20350;-86
2022/07/05 11:01:39;;;;;;;3.40;0.70;;;32.60;1.00;;;;;;5056380;28;20552;-85
2022/07/05 11:04:29;;;;;;;1.45;0.60;;;33.40;99.90;;;;;;5061157;28;20044;-87
2022/07/05 11:07:55;;;;;;;1.35;0.40;;;33.60;99.90;;;;;;5050485;28;20047;-85
2022/07/05 11:11:14;;;;;;;3.72;0.57;;;34.00;3.50;;;;;;5049250;28;20446;-87
2022/07/05 11:14:28;;;;;;;6.45;0.57;;;33.30;1.00;;;;;;5045312;28;20041;-86
2022/07/05 11:17:25;;;;;;;3.08;0.88;;;32.80;99.90;;;;;;5059158;28;20057;-86
2022/07/05 11:20:33;;;;;;;0.77;0.40;;;33.30;99.90;;;;;;5059535;28;20064;-87
2022/07/05 11:23:27;;;;;;;0.93;0.55;;;33.80;99.90;;;;;;5048309;28;20060;-86
2022/07/05 11:26:18;;;;;;;3.45;0.60;;;33.80;99.90;;;;;;5039841;28;20456;-85
2022/07/05 11:29:26;;;;;;;4.03;0.55;;;34.50;99.90;;;;;;5047533;28;20103;-87
2022/07/05 11:32:20;;;;;;;3.08;0.60;;;35.10;99.90;;;;;;5057079;28;20115;-88
2022/07/05 11:35:14;;;;;;;1.80;0.52;;;33.80;99.90;;;;;;5047367;28;20057;-85
2022/07/05 11:38:07;;;;;;;5.97;0.70;;;33.30;99.90;;;;;;5056921;28;20045;-86
2022/07/05 11:41:16;;;;;;;1.77;0.60;;;32.30;99.90;;;;;;5054688;28;20438;-87
2022/07/05 11:44:05;;;;;;;2.70;0.68;;;32.20;99.90;;;;;;5056871;28;20076;-84
2022/07/05 11:46:55;;;;;;;4.70;0.80;;;32.60;99.90;;;;;;5050993;28;20064;-87
2022/07/05 11:49:54;;;;;;;3.70;0.50;;;33.40;99.90;;;;;;5052689;28;20045;-90
2022/07/05 11:52:42;;;;;;;1.13;0.40;;;34.50;99.90;;;;;;5051265;28;20055;-86
2022/07/05 11:55:30;;;;;;;4.82;0.70;;;35.10;99.90;;;;;;5049093;28;20057;-85
2022/07/05 11:58:17;;;;;;;0.90;0.55;;;35.90;99.90;;;;;;5057341;28;20186;-86
2022/07/05 12:01:06;;;;;;;1.33;0.40;;;34.90;99.90;;;;;;5042272;28;20099;-87
2022/07/05 12:03:56;;;;;;;2.80;0.77;;;34.80;1.00;;;;;;5046007;28;20041;-88
2022/07/05 12:06:48;;;;;;;1.80;0.63;;;35.00;99.90;;;;;;5056933;28;20572;-89
2022/07/05 12:12:44;;;;;;;7.13;1.00;;;35.90;99.90;;;;;;5063134;28;19940;-88
2022/07/05 12:15:32;;;;;;;4.13;0.90;;;36.50;1.00;;;;;;5039499;28;20105;-85
2022/07/05 12:18:19;;;;;;;2.05;0.85;;;36.10;1.00;;;;;;5056612;28;20472;-90
2022/07/05 12:21:13;;;;;;;3.13;0.60;;;36.40;99.90;;;;;;5055285;28;20037;-88
2022/07/05 12:24:00;;;;;;;1.27;0.55;;;36.20;99.90;;;;;;5047538;28;20052;-85
2022/07/05 12:26:49;;;;;;;1.15;0.50;;;35.90;99.90;;;;;;5055016;28;20061;-86
2022/07/05 12:29:37;;;;;;;1.52;0.60;;;36.10;99.90;;;;;;5060186;28;20049;-91
2022/07/05 12:32:26;;;;;;;0.50;0.40;;;35.60;99.90;;;;;;5066122;28;20049;-88
2022/07/05 12:35:36;;;;;;;3.08;0.75;;;36.10;99.90;;;;;;5032774;28;20092;-88
2022/07/05 12:38:29;;;;;;;1.95;0.60;;;36.90;99.90;;;;;;5057910;28;20045;-86
2022/07/05 12:41:23;;;;;;;4.38;0.63;;;35.90;99.90;;;;;;5063010;28;20044;-87
2022/07/05 12:44:10;;;;;;;1.98;0.63;;;35.00;99.90;;;;;;5048712;28;20048;-89
2022/07/05 12:47:05;;;;;;;2.30;0.63;;;34.60;99.90;;;;;;5037843;28;20098;-86
2022/07/05 12:49:55;;;;;;;2.85;0.80;;;31.50;99.90;;;;;;5040569;28;20044;-86
2022/07/05 12:59:18;;;;;;;1.52;0.80;;;31.20;99.90;;;;;;5054130;28;20106;-88
2022/07/05 13:02:07;;;;;;;2.83;0.80;;;30.50;99.90;;;;;;5052740;28;20043;-87
2022/07/05 13:04:55;;;;;;;1.50;0.70;;;31.60;99.90;;;;;;5054951;28;20048;-86
2022/07/05 13:07:43;;;;;;;3.97;0.90;;;33.00;99.90;;;;;;5056555;28;20048;-87
2022/07/05 13:10:33;;;;;;;3.25;0.60;;;32.80;99.90;;;;;;5052169;28;20496;-87
2022/07/05 13:13:27;;;;;;;1.85;0.57;;;33.90;99.90;;;;;;5054131;28;20084;-87
2022/07/05 13:16:15;;;;;;;3.97;0.70;;;35.20;99.90;;;;;;5054110;28;20037;-88
2022/07/05 13:19:14;;;;;;;3.63;1.00;;;34.40;99.90;;;;;;5051294;28;20048;-87
2022/07/05 13:22:02;;;;;;;1.42;0.57;;;33.40;99.90;;;;;;5040449;28;20052;-86
2022/07/05 13:24:49;;;;;;;1.88;0.80;;;34.30;1.00;;;;;;5033311;28;20248;-87
2022/07/05 13:27:36;;;;;;;1.45;0.50;;;35.00;1.00;;;;;;5051575;28;20389;-89
2022/07/05 13:30:24;;;;;;;2.70;0.52;;;35.90;99.90;;;;;;5038173;28;20080;-87
2022/07/05 13:33:11;;;;;;;6.68;0.77;;;36.10;99.90;;;;;;5050645;28;20045;-87
2022/07/05 13:35:58;;;;;;;1.95;0.70;;;36.40;99.90;;;;;;5052848;28;20068;-88
2022/07/05 13:38:45;;;;;;;3.03;0.60;;;36.40;99.90;;;;;;5053946;28;20112;-84
2022/07/05 13:41:35;;;;;;;1.05;0.50;;;35.30;99.90;;;;;;5052089;28;20128;-85
2022/07/05 13:44:22;;;;;;;2.95;0.80;;;35.30;1.00;;;;;;5052308;28;20122;-86
2022/07/05 13:47:11;;;;;;;3.55;0.60;;;35.30;99.90;;;;;;5055674;28;20055;-86
2022/07/05 13:53:04;;;;;;;4.13;0.85;;;36.40;1.00;;;;;;5052283;28;20045;-86
2022/07/05 13:55:53;;;;;;;2.25;0.70;;;36.10;7.30;;;;;;5053308;28;20057;-85
2022/07/05 13:58:41;;;;;;;2.42;0.77;;;35.60;99.90;;;;;;5048355;28;20120;-86
2022/07/05 14:01:30;;;;;;;1.23;0.55;;;35.40;1.00;;;;;;5052624;28;20373;-84
2022/07/05 14:04:20;;;;;;;3.15;0.70;;;36.30;99.90;;;;;;5051149;28;20324;-85
2022/07/05 14:07:07;;;;;;;9.10;0.77;;;36.30;99.90;;;;;;5048906;28;20057;-86
2022/07/05 14:09:55;;;;;;;1.10;0.80;;;36.70;99.90;;;;;;5054030;28;20056;-85
2022/07/05 14:12:42;;;;;;;3.38;0.57;;;36.70;99.90;;;;;;5044440;28;20383;-88
2022/07/05 14:15:29;;;;;;;4.28;0.55;;;36.70;99.90;;;;;;5041056;28;20068;-86
2022/07/05 14:18:18;;;;;;;2.10;0.88;;;36.50;99.90;;;;;;5054572;28;20041;-86
2022/07/05 14:21:06;;;;;;;4.18;0.90;;;35.70;99.90;;;;;;5051522;28;20171;-85
2022/07/05 14:23:53;;;;;;;1.58;0.73;;;36.00;99.90;;;;;;5048321;28;20048;-85
2022/07/05 14:26:41;;;;;;;1.88;1.30;;;35.90;99.90;;;;;;5055372;28;20037;-86
2022/07/05 14:29:28;;;;;;;5.68;0.52;;;35.90;99.90;;;;;;5060797;28;20084;-87
2022/07/05 14:32:16;;;;;;;1.02;0.52;;;36.10;1.00;;;;;;5064151;28;20041;-87
2022/07/05 14:35:05;;;;;;;3.25;1.00;;;36.10;99.90;;;;;;5062048;28;20044;-85
2022/07/05 14:37:56;;;;;;;3.03;0.80;;;36.20;99.90;;;;;;5058176;28;20040;-87
2022/07/05 14:40:43;;;;;;;1.52;0.70;;;36.50;99.90;;;;;;5074612;28;20056;-84
2022/07/05 14:43:33;;;;;;;2.42;0.88;;;36.20;99.90;;;;;;5067931;28;20041;-84
2022/07/05 14:46:22;;;;;;;3.88;0.70;;;35.10;99.90;;;;;;5067969;28;20053;-85
2022/07/05 14:49:11;;;;;;;3.53;1.00;;;35.60;99.90;;;;;;5048110;28;20041;-85
2022/07/05 14:51:58;;;;;;;2.33;0.82;;;35.40;88.10;;;;;;5052463;28;20446;-85
2022/07/05 14:54:45;;;;;;;1.42;0.65;;;35.10;99.90;;;;;;5050651;28;20052;-86
2022/07/05 14:57:33;;;;;;;2.15;0.70;;;35.30;87.30;;;;;;5049673;28;20040;-85
2022/07/05 15:00:22;;;;;;;4.07;0.80;;;35.60;99.90;;;;;;5054107;28;20048;-87
2022/07/05 15:03:10;;;;;;;2.85;0.70;;;34.90;67.80;;;;;;5033286;28;20405;-85
2022/07/05 15:05:57;;;;;;;1.25;0.60;;;32.80;29.70;;;;;;5065818;28;20125;-86
2022/07/05 15:08:45;;;;;;;3.08;0.90;;;31.90;28.30;;;;;;5055173;28;20501;-87
2022/07/05 15:11:32;;;;;;;1.65;0.73;;;31.70;15.10;;;;;;5052090;28;20057;-86
2022/07/05 15:14:20;;;;;;;1.20;0.60;;;32.00;1.00;;;;;;5049111;28;20048;-86
2022/07/05 15:17:07;;;;;;;0.80;0.63;;;32.80;1.00;;;;;;5049337;28;20163;-87
2022/07/05 15:19:54;;;;;;;7.72;0.60;;;33.80;1.00;;;;;;5050959;28;20504;-87
2022/07/05 15:22:45;;;;;;;4.60;0.60;;;34.70;99.90;;;;;;5037239;28;20052;-87
2022/07/05 15:25:32;;;;;;;1.38;0.60;;;34.40;99.90;;;;;;5053355;28;20171;-88
2022/07/05 15:28:20;;;;;;;3.35;0.85;;;33.40;99.90;;;;;;5042877;28;20111;-83
2022/07/05 15:31:10;;;;;;;4.82;1.10;;;33.20;99.90;;;;;;5059403;28;20438;-85
2022/07/05 15:33:58;;;;;;;2.33;0.70;;;32.50;99.90;;;;;;5056745;28;20064;-84
2022/07/05 15:36:45;;;;;;;2.08;0.70;;;31.40;1.00;;;;;;5055168;28;20474;-87